createdAt,value
2019-03-18T13:31:58.403Z,759.30
2019-03-18T14:09:39.443Z,939.45
2019-03-18T14:12:11.401Z,830.17
2019-03-18T14:14:42.554Z,207.63
2019-03-18T14:17:13.547Z,12.90
2019-03-18T14:19:45.465Z,4.45
2019-03-18T14:22:20.461Z,184.87
2019-03-18T14:24:52.077Z,141.43
2019-03-18T14:27:23.261Z,16.67
2019-03-18T14:29:54.282Z,2.73
2019-03-18T14:32:25.883Z,381.35
2019-03-18T14:35:00.571Z,23.05
2019-03-18T14:37:32.786Z,120.57
2019-03-18T14:40:09.025Z,4.08
2019-03-18T14:42:40.174Z,2.08
2019-03-18T14:45:13.960Z,3.90
2019-03-18T14:47:44.944Z,4.87
2019-03-18T14:50:17.274Z,2.87
2019-03-18T14:52:48.890Z,13.13
2019-03-18T14:55:20.341Z,2.95
2019-03-18T14:57:51.512Z,14.43
2019-03-18T15:00:24.006Z,12.10
2019-03-18T15:02:55.784Z,13.97
2019-03-18T15:05:27.857Z,5.73
2019-03-18T15:08:01.549Z,251.87
2019-03-18T15:10:33.232Z,19.60
2019-03-18T15:13:05.341Z,225.20
2019-03-18T15:15:36.438Z,10.47
2019-03-18T15:18:07.471Z,14.60
2019-03-18T15:20:38.560Z,3.93
2019-03-18T15:23:09.614Z,7.50
2019-03-18T15:25:40.596Z,5.87
2019-03-18T15:28:12.014Z,4.77
2019-03-18T15:31:02.346Z,9.33
2019-03-18T15:33:52.296Z,4.17
2019-03-18T15:36:41.997Z,3.57
2019-03-18T15:39:12.977Z,10.90
2019-03-18T15:41:43.968Z,11.43
2019-03-18T15:44:15.455Z,20.67
2019-03-18T15:46:46.433Z,11.07
2019-03-18T15:49:17.506Z,52.00
2019-03-18T15:51:48.541Z,8.30
2019-03-18T15:54:19.913Z,5.67
2019-03-18T15:56:50.914Z,11.67
2019-03-18T15:59:22.526Z,4.87
2019-03-18T16:01:53.508Z,5.17
2019-03-18T16:04:25.257Z,7.73
2019-03-18T16:06:56.676Z,5.57
2019-03-18T16:09:28.094Z,2.83
2019-03-18T16:11:59.337Z,6.43
2019-03-18T16:14:31.624Z,13.53
2019-03-18T16:17:03.007Z,12.50
2019-03-18T16:19:34.729Z,32.60
2019-03-18T16:22:05.752Z,26.40
2019-03-18T16:24:37.269Z,159.83
2019-03-18T16:27:08.259Z,77.23
2019-03-18T16:29:39.376Z,34.77
2019-03-18T16:32:11.508Z,42.27
2019-03-18T16:34:43.240Z,38.25
2019-03-18T16:37:14.624Z,37.10
2019-03-18T16:39:45.608Z,103.23
